This is the latest recevied weather packets stored in our database for station/object WY1U-1. If no packets are shown the sender has not sent any weather packets the latest 10 day(s).
| Time | Temp. | Humidity | Pressure | Rain* | Wind** | Luminosity | Snow |
|---|---|---|---|---|---|---|---|
| 1777932110 | 18.89° C | 48% | 1009.7 hPa | 0 mm | - | - | - |
| 1777924910 | 20° C | 41% | 1009.5 hPa | 0 mm | - | - | - |
| 1777921311 | 20° C | 39% | 1009.7 hPa | 0 mm | - | - | - |
| 1777917710 | 20.56° C | 34% | 1010.2 hPa | 0 mm | - | - | - |
| 1777914111 | 20° C | 32% | 1010.7 hPa | 0 mm | - | - | - |
| 1777910510 | 19.44° C | 33% | 1011.4 hPa | 0 mm | - | - | - |
| 1777906911 | 17.78° C | 35% | 1012.1 hPa | 0 mm | - | - | - |
| 1777903310 | 16.67° C | 38% | 1012.6 hPa | 0 mm | - | - | - |
| 1777899710 | 15° C | 45% | 1013.2 hPa | 0 mm | - | - | - |
| 1777896110 | 10° C | 66% | 1013.7 hPa | 0 mm | - | - | - |
| 1777892510 | 7.78° C | 71% | 1013.6 hPa | 0 mm | - | - | - |
| 1777890709 | 9.44° C | 66% | 1013.4 hPa | 0 mm | - | - | - |
| 1777888909 | 9.44° C | 59% | 1013.1 hPa | 0 mm | - | - | - |
| 1777887109 | 10° C | 58% | 1012.9 hPa | 0 mm | - | - | - |
| 1777885311 | 9.44° C | 58% | 1012.7 hPa | 0 mm | - | - | - |
| 1777883510 | 7.22° C | 69% | 1012.6 hPa | 0 mm | - | - | - |
| 1777881710 | 5° C | 78% | 1012.7 hPa | 0 mm | - | - | - |
| 1777878111 | 6.11° C | 74% | 1012.5 hPa | 0 mm | - | - | - |
| 1777874510 | 5.56° C | 71% | 1012.5 hPa | 0 mm | - | - | - |
| 1777872709 | 5.56° C | 69% | 1012.4 hPa | 0 mm | - | - | - |
| 1777870910 | 6.11° C | 67% | 1012.4 hPa | 0 mm | - | - | - |
| 1777869109 | 6.67° C | 63% | 1012.4 hPa | 0 mm | - | - | - |
| 1777867310 | 7.22° C | 60% | 1012.2 hPa | 0 mm | - | - | - |
| 1777865509 | 7.78° C | 58% | 1012.1 hPa | 0 mm | - | - | - |
| 1777863710 | 8.33° C | 55% | 1012.1 hPa | 0 mm | - | - | - |
* Rain latest hour (hover to see other rain measurements)
** Current wind speed in m/s (hover to see current wind gust speed)